CheckWX is a tool to help pilots better visualize weather data.  It is not intended as a substitute for an official pre-flight weather briefing.

22:59:08 UTC

EGUB METAR
RAF Benson Airport
Benson, United Kingdom
Current

1 hour ago

EGUB 062150Z 31002KT CAVOK 14/07 Q1023 NOSIG RMK BLU BLU
Observed
Jul-6 @ 21:50 UTC
Wind
  • 310° at 2 KTS
Visibility
10,000+ meters
Flight Rules
VFR
Cloud Levels
  • Clear skies
Temperature
14°C / 57°F
Dewpoint
C / 45°F
Humidity
63%
Altimeter
30.21" Hg
Pressure
1022.92 hPa
Previous

2 hours ago

EGUB 062050Z 34003KT CAVOK 15/06 Q1023 NOSIG RMK BLU BLU
Observed
Jul-6 @ 20:50 UTC
Wind
  • 340° at 3 KTS
Visibility
10,000+ meters
Flight Rules
VFR
Cloud Levels
  • Clear skies
Temperature
15°C / 59°F
Dewpoint
C / 43°F
Humidity
55%
Altimeter
30.21" Hg
Pressure
1022.92 hPa
Previous

3 hours ago

EGUB 061950Z 33005KT CAVOK 17/06 Q1022 NOSIG RMK BLU BLU
Observed
Jul-6 @ 19:50 UTC
Wind
  • 330° at 5 KTS
Visibility
10,000+ meters
Flight Rules
VFR
Cloud Levels
  • Clear skies
Temperature
17°C / 63°F
Dewpoint
C / 43°F
Humidity
49%
Altimeter
30.18" Hg
Pressure
1021.92 hPa